Links & Downloads

Hier präsentieren wir eine Auswahl wichtiger Downloads und interessanter Internetseiten. Wir versuchen, diese Seite immer auf aktuellem Stand zu halten.

Dokumente & Programme

  FluPP, ein kostenloses Flugbuch für Windows, mit dem man seine Flüge (Segelflug, Ultraleicht, Motorsegler, Motorflug...) verwalten kann
 
OLC - Segelflugszene

  Alle Streckenflüge des VfS |   Streckenflüge ab Krefeld |   Landesliga - Tabelle

Wetter


METAR / TAF Düsseldorf

[Quelle: ADDS]
METAR
EDDL 192050Z 23009KT 9999 FEW020 SCT060 03/00 Q1009 NOSIG =
TAF
EDDL 191700Z 1918/2024 22009KT 9999 SCT025 PROB30 TEMPO 1918/2003 2500 SHSNRA BKN012CB BECMG 2006/2009 16009KT TEMPO 2017/2024 RA BECMG 2017/2020 04009KT BKN010 PROB30 TEMPO 2019/2024 2000 RASN BKN004 BECMG 2021/2024 33009KT =
SR / SS: 07:26 / 16:01 UTC ( 2018-01-19)

Luftsportportale

Verbände

Behörden

 
Bundesamt für Naturschutz:
Gebiete mit Vogelvorkommen mit besonderer Luftfahrtrelevanz (Aircraft relevant Bird Area)
1.   Allgemein
2.   Niederrhein

Fliegerärzte

Webshops

Vereinsflieger